HESHHELX

Guest
Details From HESH - SHARM EL SHEIKH INTL
To HELX - LUXOR INTL
Flight Number -
Tags generated
Created
Modified
Stats Distance 165 nm / 306 km
Max Altitude 20,500 ft / 6,248 m
Waypoints 3
Social Downloads 2
Likes 0
Share VATSIM

Download

Looking for another format? Having issues loading an existing format? Contact us
Advertisement - Login to hide

Notes

Basic altitude profile: - Ascent Rate: 2500ft/min - Ascent Speed: 250kts - Cruise Altitude: 35000ft - Cruise Speed: 420kts - Descent Rate: 1500ft/min - Descent Speed: 250kts Options: - Use NATs: yes - Use PACOTS: yes - Use low airways: yes - Use high airways: yes

Route

HESH HGD HELX

ID Type Via Altitude Latitude Longitude Leg Dist Tot Dist Heading (true) Name
O HESH APT - 0 ft / 0 m 27.97732˚ 34.39495˚ - 0 nm - SHARM EL SHEIKH INTL
HGD VOR - 20,500 ft / 6,248 m 27.17776˚ 33.79639˚ 57 nm 57 nm 214° / 213° HURGHADA VOR-DME
O HELX APT - 0 ft / 0 m 25.67109˚ 32.70640˚ 107 nm 165 nm 213° / 213° LUXOR INTL

Altitude Profile

Advertisement - Login to hide

Weather


0- 5 10 15 20 25 30 35+ Temperature / ° C

Clouds and Precipitation
Forecast for 2017-12-16 12:00 UTC. Updated 20 minutes ago

Ground ~20,000 ft ~40,000 ft Winds

HESH

Details ICAO HESH (SSH)
Name SHARM EL SHEIKH INTL
Region Egypt
Timezone Africa/Cairo (UTC+2.0)
Stats Elevation 143 ft / 44 m (AMSL)
Location 27.977318° 34.394945°
Runways 2
Magnetic Variation 4.282° E

METAR

HESH 160700Z 36010KT CAVOK 21/06 Q1021 NOSIG

Decode

TAF

Not found

Departure Runways

ID Width Length Bearing (true) Bearing (mag) Surface Threshold Offset Overrun Length
04L 148 ft / 45 m 10,120 ft / 3,085 m 42.65° 38.37° Asphalt 0 ft / 0 m 200 ft / 61 m
04R 148 ft / 45 m 10,121 ft / 3,085 m 42.65° 38.37° Asphalt 0 ft / 0 m 200 ft / 61 m
22L 148 ft / 45 m 10,121 ft / 3,085 m 222.66° 218.38° Asphalt 0 ft / 0 m 200 ft / 61 m
22R 148 ft / 45 m 10,120 ft / 3,085 m 222.66° 218.38° Asphalt 0 ft / 0 m 200 ft / 61 m

HELX

Details ICAO HELX (LXR)
Name LUXOR INTL
Region Egypt
Timezone Africa/Cairo (UTC+2.0)
Stats Elevation 294 ft / 90 m (AMSL)
Location 25.671086° 32.706403°
Runways 1
Magnetic Variation 4.083° E

METAR

HELX 160700Z 32003KT 6000 NSC 16/08 Q1021 NOSIG

Decode

TAF

TAF HELX 160500Z 1606/1712 VRB03KT 8000 NSC TEMPO 1606/1609 4000 HZ BECMG 1610/1612 33008KT CAVOK

Decode

Destination Runways

ID Width Length Bearing (true) Bearing (mag) Surface Threshold Offset Overrun Length
02 148 ft / 45 m 9,874 ft / 3,010 m 22.46° 18.38° Asphalt 0 ft / 0 m 215 ft / 66 m
20 148 ft / 45 m 9,874 ft / 3,010 m 202.47° 198.39° Asphalt 0 ft / 0 m 215 ft / 66 m

Approach Navaids

Runway Type Ident Frequency Range Bearing (true) Bearing (mag) Slope Elevation
20 Localiser XIL 111.10 MHz 18 nm / 33 km 202.41° 198.33° - 303 ft / 92 m (AMSL)
20 Glidescope XIL 111.10 MHz 10 nm / 19 km 202.46° 198.38° 3.00° 326 ft / 99 m (AMSL)
20 DME XIL 111.10 MHz 18 nm / 33 km - - - 326 ft / 99 m (AMSL)

Popular Alternatives